sensor_id;sensor_type;location;lat;lon;timestamp;P1;durP1;ratioP1;P2;durP2;ratioP2
56114;SDS011;41988;53.020;6.576;2023-12-14T00:00:43;13.40;;;7.63;;
56114;SDS011;41988;53.020;6.576;2023-12-14T00:03:28;13.10;;;7.28;;
56114;SDS011;41988;53.020;6.576;2023-12-14T00:06:12;13.25;;;8.00;;
56114;SDS011;41988;53.020;6.576;2023-12-14T00:08:57;15.90;;;7.32;;
56114;SDS011;41988;53.020;6.576;2023-12-14T00:11:41;15.82;;;7.53;;
56114;SDS011;41988;53.020;6.576;2023-12-14T00:14:25;14.07;;;7.05;;
56114;SDS011;41988;53.020;6.576;2023-12-14T00:17:09;15.02;;;8.07;;
56114;SDS011;41988;53.020;6.576;2023-12-14T00:19:53;12.35;;;7.68;;
56114;SDS011;41988;53.020;6.576;2023-12-14T00:22:37;12.32;;;6.68;;
56114;SDS011;41988;53.020;6.576;2023-12-14T00:25:22;12.60;;;6.57;;
56114;SDS011;41988;53.020;6.576;2023-12-14T00:28:06;13.35;;;7.43;;
56114;SDS011;41988;53.020;6.576;2023-12-14T00:30:50;13.52;;;6.97;;
56114;SDS011;41988;53.020;6.576;2023-12-14T00:33:34;10.75;;;6.85;;
56114;SDS011;41988;53.020;6.576;2023-12-14T00:36:18;13.50;;;7.03;;
56114;SDS011;41988;53.020;6.576;2023-12-14T00:39:03;10.25;;;5.88;;
56114;SDS011;41988;53.020;6.576;2023-12-14T00:41:48;14.15;;;6.85;;
56114;SDS011;41988;53.020;6.576;2023-12-14T00:44:32;13.13;;;6.88;;
56114;SDS011;41988;53.020;6.576;2023-12-14T00:47:16;14.25;;;7.45;;
56114;SDS011;41988;53.020;6.576;2023-12-14T00:50:00;15.90;;;6.93;;
56114;SDS011;41988;53.020;6.576;2023-12-14T00:52:44;9.85;;;6.20;;
56114;SDS011;41988;53.020;6.576;2023-12-14T00:55:28;12.27;;;7.07;;
56114;SDS011;41988;53.020;6.576;2023-12-14T00:58:12;13.30;;;6.57;;
56114;SDS011;41988;53.020;6.576;2023-12-14T01:00:57;11.70;;;6.30;;
56114;SDS011;41988;53.020;6.576;2023-12-14T01:03:41;10.27;;;6.45;;
56114;SDS011;41988;53.020;6.576;2023-12-14T01:06:25;10.23;;;5.80;;
56114;SDS011;41988;53.020;6.576;2023-12-14T01:09:09;11.77;;;6.38;;
56114;SDS011;41988;53.020;6.576;2023-12-14T01:11:53;10.15;;;6.13;;
56114;SDS011;41988;53.020;6.576;2023-12-14T01:14:37;10.40;;;6.60;;
56114;SDS011;41988;53.020;6.576;2023-12-14T01:17:21;10.48;;;5.80;;
56114;SDS011;41988;53.020;6.576;2023-12-14T01:20:06;9.60;;;5.90;;
56114;SDS011;41988;53.020;6.576;2023-12-14T01:22:51;9.30;;;5.88;;
56114;SDS011;41988;53.020;6.576;2023-12-14T01:25:35;9.38;;;5.88;;
56114;SDS011;41988;53.020;6.576;2023-12-14T01:28:20;15.43;;;5.85;;
56114;SDS011;41988;53.020;6.576;2023-12-14T01:31:04;9.93;;;5.05;;
56114;SDS011;41988;53.020;6.576;2023-12-14T01:33:49;8.73;;;5.30;;
56114;SDS011;41988;53.020;6.576;2023-12-14T01:36:33;10.07;;;5.82;;
56114;SDS011;41988;53.020;6.576;2023-12-14T01:39:17;10.98;;;5.93;;
56114;SDS011;41988;53.020;6.576;2023-12-14T01:42:01;10.02;;;5.82;;
56114;SDS011;41988;53.020;6.576;2023-12-14T01:44:46;11.68;;;5.75;;
56114;SDS011;41988;53.020;6.576;2023-12-14T01:47:30;9.00;;;5.85;;
56114;SDS011;41988;53.020;6.576;2023-12-14T01:50:14;11.35;;;6.30;;
56114;SDS011;41988;53.020;6.576;2023-12-14T01:52:58;11.55;;;6.30;;
56114;SDS011;41988;53.020;6.576;2023-12-14T01:55:42;11.40;;;5.78;;
56114;SDS011;41988;53.020;6.576;2023-12-14T01:58:27;12.55;;;6.18;;
56114;SDS011;41988;53.020;6.576;2023-12-14T02:01:18;10.48;;;6.82;;
56114;SDS011;41988;53.020;6.576;2023-12-14T02:04:03;14.20;;;6.55;;
56114;SDS011;41988;53.020;6.576;2023-12-14T02:06:50;11.95;;;6.75;;
56114;SDS011;41988;53.020;6.576;2023-12-14T02:09:34;12.35;;;6.43;;
56114;SDS011;41988;53.020;6.576;2023-12-14T02:12:18;10.20;;;6.35;;
56114;SDS011;41988;53.020;6.576;2023-12-14T02:15:02;13.68;;;6.55;;
56114;SDS011;41988;53.020;6.576;2023-12-14T02:17:47;13.63;;;6.85;;
56114;SDS011;41988;53.020;6.576;2023-12-14T02:20:31;13.60;;;7.03;;
56114;SDS011;41988;53.020;6.576;2023-12-14T02:23:15;14.38;;;7.07;;
56114;SDS011;41988;53.020;6.576;2023-12-14T02:25:59;12.55;;;6.43;;
56114;SDS011;41988;53.020;6.576;2023-12-14T02:28:43;11.43;;;6.82;;
56114;SDS011;41988;53.020;6.576;2023-12-14T02:31:27;13.55;;;7.97;;
56114;SDS011;41988;53.020;6.576;2023-12-14T02:34:12;12.73;;;6.95;;
56114;SDS011;41988;53.020;6.576;2023-12-14T02:36:56;13.32;;;6.43;;
56114;SDS011;41988;53.020;6.576;2023-12-14T02:39:40;19.65;;;7.88;;
56114;SDS011;41988;53.020;6.576;2023-12-14T02:42:25;14.63;;;7.85;;
56114;SDS011;41988;53.020;6.576;2023-12-14T02:45:09;14.48;;;7.63;;
56114;SDS011;41988;53.020;6.576;2023-12-14T02:47:54;15.32;;;7.10;;
56114;SDS011;41988;53.020;6.576;2023-12-14T02:50:38;15.65;;;7.53;;
56114;SDS011;41988;53.020;6.576;2023-12-14T02:53:23;15.45;;;8.25;;
56114;SDS011;41988;53.020;6.576;2023-12-14T02:56:07;16.48;;;8.50;;
56114;SDS011;41988;53.020;6.576;2023-12-14T02:58:54;18.90;;;10.13;;
56114;SDS011;41988;53.020;6.576;2023-12-14T03:01:38;20.02;;;8.82;;
56114;SDS011;41988;53.020;6.576;2023-12-14T03:04:22;20.23;;;8.70;;
56114;SDS011;41988;53.020;6.576;2023-12-14T03:07:07;21.00;;;9.02;;
56114;SDS011;41988;53.020;6.576;2023-12-14T03:09:51;17.35;;;8.43;;
56114;SDS011;41988;53.020;6.576;2023-12-14T03:12:35;17.30;;;8.43;;
56114;SDS011;41988;53.020;6.576;2023-12-14T03:15:19;18.05;;;8.27;;
56114;SDS011;41988;53.020;6.576;2023-12-14T03:18:03;21.48;;;8.80;;
56114;SDS011;41988;53.020;6.576;2023-12-14T03:20:47;19.05;;;8.60;;
56114;SDS011;41988;53.020;6.576;2023-12-14T03:23:31;15.20;;;7.88;;
56114;SDS011;41988;53.020;6.576;2023-12-14T03:26:16;18.20;;;9.25;;
56114;SDS011;41988;53.020;6.576;2023-12-14T03:29:00;15.57;;;8.15;;
56114;SDS011;41988;53.020;6.576;2023-12-14T03:31:44;19.00;;;8.25;;
56114;SDS011;41988;53.020;6.576;2023-12-14T03:34:29;21.20;;;8.95;;
56114;SDS011;41988;53.020;6.576;2023-12-14T03:37:13;14.40;;;7.20;;
56114;SDS011;41988;53.020;6.576;2023-12-14T03:39:57;16.40;;;7.65;;
56114;SDS011;41988;53.020;6.576;2023-12-14T03:42:41;15.23;;;8.63;;
56114;SDS011;41988;53.020;6.576;2023-12-14T03:45:25;17.35;;;8.90;;
56114;SDS011;41988;53.020;6.576;2023-12-14T03:48:09;20.50;;;9.20;;
56114;SDS011;41988;53.020;6.576;2023-12-14T03:50:53;17.83;;;8.48;;
56114;SDS011;41988;53.020;6.576;2023-12-14T03:53:37;22.92;;;8.90;;
56114;SDS011;41988;53.020;6.576;2023-12-14T03:56:21;19.27;;;8.80;;
56114;SDS011;41988;53.020;6.576;2023-12-14T03:59:05;17.77;;;8.75;;
56114;SDS011;41988;53.020;6.576;2023-12-14T04:01:51;20.33;;;9.43;;
56114;SDS011;41988;53.020;6.576;2023-12-14T04:04:34;23.20;;;9.05;;
56114;SDS011;41988;53.020;6.576;2023-12-14T04:07:19;17.88;;;9.40;;
56114;SDS011;41988;53.020;6.576;2023-12-14T04:10:03;14.65;;;8.65;;
56114;SDS011;41988;53.020;6.576;2023-12-14T04:12:47;18.98;;;8.57;;
56114;SDS011;41988;53.020;6.576;2023-12-14T04:15:31;14.27;;;8.23;;
56114;SDS011;41988;53.020;6.576;2023-12-14T04:18:16;17.75;;;8.48;;
56114;SDS011;41988;53.020;6.576;2023-12-14T04:21:00;17.80;;;8.35;;
56114;SDS011;41988;53.020;6.576;2023-12-14T04:23:44;19.90;;;8.82;;
56114;SDS011;41988;53.020;6.576;2023-12-14T04:26:29;21.42;;;7.88;;
56114;SDS011;41988;53.020;6.576;2023-12-14T04:29:13;21.98;;;8.60;;
56114;SDS011;41988;53.020;6.576;2023-12-14T04:31:57;22.60;;;8.00;;
56114;SDS011;41988;53.020;6.576;2023-12-14T04:34:41;18.20;;;8.10;;
56114;SDS011;41988;53.020;6.576;2023-12-14T04:37:25;20.20;;;8.27;;
56114;SDS011;41988;53.020;6.576;2023-12-14T04:40:09;19.98;;;8.27;;
56114;SDS011;41988;53.020;6.576;2023-12-14T04:42:54;16.38;;;8.20;;
56114;SDS011;41988;53.020;6.576;2023-12-14T04:45:38;19.95;;;8.02;;
56114;SDS011;41988;53.020;6.576;2023-12-14T04:48:22;17.75;;;7.72;;
56114;SDS011;41988;53.020;6.576;2023-12-14T04:51:10;19.40;;;7.95;;
56114;SDS011;41988;53.020;6.576;2023-12-14T04:53:55;21.13;;;8.77;;
56114;SDS011;41988;53.020;6.576;2023-12-14T04:56:39;17.48;;;8.65;;
56114;SDS011;41988;53.020;6.576;2023-12-14T04:59:24;16.88;;;7.50;;
56114;SDS011;41988;53.020;6.576;2023-12-14T05:02:08;15.38;;;7.95;;
56114;SDS011;41988;53.020;6.576;2023-12-14T05:04:53;18.42;;;7.55;;
56114;SDS011;41988;53.020;6.576;2023-12-14T05:07:37;18.70;;;7.80;;
56114;SDS011;41988;53.020;6.576;2023-12-14T05:10:21;20.45;;;8.38;;
56114;SDS011;41988;53.020;6.576;2023-12-14T05:13:05;16.23;;;8.07;;
56114;SDS011;41988;53.020;6.576;2023-12-14T05:15:50;20.50;;;8.80;;
56114;SDS011;41988;53.020;6.576;2023-12-14T05:18:35;14.77;;;8.27;;
56114;SDS011;41988;53.020;6.576;2023-12-14T05:21:20;18.50;;;8.93;;
56114;SDS011;41988;53.020;6.576;2023-12-14T05:24:05;18.30;;;9.02;;
56114;SDS011;41988;53.020;6.576;2023-12-14T05:26:49;20.58;;;10.40;;
56114;SDS011;41988;53.020;6.576;2023-12-14T05:29:34;19.20;;;9.00;;
56114;SDS011;41988;53.020;6.576;2023-12-14T05:32:18;17.05;;;7.93;;
56114;SDS011;41988;53.020;6.576;2023-12-14T05:35:01;14.32;;;7.60;;
56114;SDS011;41988;53.020;6.576;2023-12-14T05:37:45;15.55;;;8.00;;
56114;SDS011;41988;53.020;6.576;2023-12-14T05:40:30;14.70;;;7.90;;
56114;SDS011;41988;53.020;6.576;2023-12-14T05:43:14;16.50;;;8.23;;
56114;SDS011;41988;53.020;6.576;2023-12-14T05:45:58;17.08;;;8.23;;
56114;SDS011;41988;53.020;6.576;2023-12-14T05:48:43;19.00;;;9.05;;
56114;SDS011;41988;53.020;6.576;2023-12-14T05:51:30;15.85;;;7.60;;
56114;SDS011;41988;53.020;6.576;2023-12-14T05:54:15;16.52;;;9.25;;
56114;SDS011;41988;53.020;6.576;2023-12-14T05:56:59;17.63;;;9.00;;
56114;SDS011;41988;53.020;6.576;2023-12-14T05:59:43;17.85;;;9.00;;
56114;SDS011;41988;53.020;6.576;2023-12-14T06:02:27;20.05;;;9.18;;
56114;SDS011;41988;53.020;6.576;2023-12-14T06:05:12;15.40;;;8.23;;
56114;SDS011;41988;53.020;6.576;2023-12-14T06:07:59;16.60;;;9.05;;
56114;SDS011;41988;53.020;6.576;2023-12-14T06:10:43;14.77;;;8.88;;
56114;SDS011;41988;53.020;6.576;2023-12-14T06:13:27;17.02;;;8.02;;
56114;SDS011;41988;53.020;6.576;2023-12-14T06:16:11;17.90;;;8.98;;
56114;SDS011;41988;53.020;6.576;2023-12-14T06:18:56;15.95;;;9.02;;
56114;SDS011;41988;53.020;6.576;2023-12-14T06:21:40;18.67;;;8.95;;
56114;SDS011;41988;53.020;6.576;2023-12-14T06:24:24;15.27;;;7.97;;
56114;SDS011;41988;53.020;6.576;2023-12-14T06:27:08;13.82;;;6.97;;
56114;SDS011;41988;53.020;6.576;2023-12-14T06:29:52;13.10;;;8.13;;
56114;SDS011;41988;53.020;6.576;2023-12-14T06:32:36;14.02;;;7.20;;
56114;SDS011;41988;53.020;6.576;2023-12-14T06:35:20;14.65;;;7.32;;
56114;SDS011;41988;53.020;6.576;2023-12-14T06:38:05;12.93;;;7.78;;
56114;SDS011;41988;53.020;6.576;2023-12-14T06:40:49;12.32;;;7.63;;
56114;SDS011;41988;53.020;6.576;2023-12-14T06:43:34;14.82;;;6.80;;
56114;SDS011;41988;53.020;6.576;2023-12-14T06:46:18;15.10;;;7.80;;
56114;SDS011;41988;53.020;6.576;2023-12-14T06:49:03;12.55;;;7.25;;
56114;SDS011;41988;53.020;6.576;2023-12-14T06:51:47;16.90;;;7.47;;
56114;SDS011;41988;53.020;6.576;2023-12-14T06:54:31;14.40;;;7.60;;
56114;SDS011;41988;53.020;6.576;2023-12-14T06:57:15;15.93;;;8.30;;
56114;SDS011;41988;53.020;6.576;2023-12-14T06:59:59;16.02;;;8.32;;
56114;SDS011;41988;53.020;6.576;2023-12-14T07:02:43;17.02;;;9.27;;
56114;SDS011;41988;53.020;6.576;2023-12-14T07:05:27;16.63;;;8.68;;
56114;SDS011;41988;53.020;6.576;2023-12-14T07:08:12;20.38;;;8.70;;
56114;SDS011;41988;53.020;6.576;2023-12-14T07:10:56;15.75;;;7.95;;
56114;SDS011;41988;53.020;6.576;2023-12-14T07:13:40;15.48;;;9.20;;
56114;SDS011;41988;53.020;6.576;2023-12-14T07:16:24;17.98;;;9.63;;
56114;SDS011;41988;53.020;6.576;2023-12-14T07:19:08;17.63;;;9.10;;
56114;SDS011;41988;53.020;6.576;2023-12-14T07:21:54;20.40;;;10.52;;
56114;SDS011;41988;53.020;6.576;2023-12-14T07:24:38;19.38;;;9.00;;
56114;SDS011;41988;53.020;6.576;2023-12-14T07:27:22;30.92;;;11.38;;
56114;SDS011;41988;53.020;6.576;2023-12-14T07:30:07;22.73;;;9.95;;
56114;SDS011;41988;53.020;6.576;2023-12-14T07:32:53;19.92;;;11.43;;
56114;SDS011;41988;53.020;6.576;2023-12-14T07:35:38;24.10;;;10.30;;
56114;SDS011;41988;53.020;6.576;2023-12-14T07:38:22;20.58;;;10.90;;
56114;SDS011;41988;53.020;6.576;2023-12-14T07:41:06;23.95;;;11.07;;
56114;SDS011;41988;53.020;6.576;2023-12-14T07:43:50;24.13;;;10.18;;
56114;SDS011;41988;53.020;6.576;2023-12-14T07:46:35;25.20;;;11.52;;
56114;SDS011;41988;53.020;6.576;2023-12-14T07:49:22;24.55;;;11.20;;
56114;SDS011;41988;53.020;6.576;2023-12-14T07:52:07;26.13;;;10.60;;
56114;SDS011;41988;53.020;6.576;2023-12-14T07:54:53;28.95;;;10.70;;
56114;SDS011;41988;53.020;6.576;2023-12-14T07:57:37;21.92;;;10.25;;
56114;SDS011;41988;53.020;6.576;2023-12-14T08:00:21;27.85;;;10.57;;
56114;SDS011;41988;53.020;6.576;2023-12-14T08:03:05;25.35;;;10.00;;
56114;SDS011;41988;53.020;6.576;2023-12-14T08:05:49;25.00;;;10.77;;
56114;SDS011;41988;53.020;6.576;2023-12-14T08:08:34;30.80;;;11.93;;
56114;SDS011;41988;53.020;6.576;2023-12-14T08:11:19;24.30;;;11.15;;
56114;SDS011;41988;53.020;6.576;2023-12-14T08:14:03;23.75;;;10.38;;
56114;SDS011;41988;53.020;6.576;2023-12-14T08:16:47;25.65;;;11.45;;
56114;SDS011;41988;53.020;6.576;2023-12-14T08:19:31;24.70;;;10.85;;
56114;SDS011;41988;53.020;6.576;2023-12-14T08:22:15;26.50;;;11.70;;
56114;SDS011;41988;53.020;6.576;2023-12-14T08:24:59;23.45;;;10.05;;
56114;SDS011;41988;53.020;6.576;2023-12-14T08:27:44;27.15;;;10.48;;
56114;SDS011;41988;53.020;6.576;2023-12-14T08:30:28;29.20;;;11.32;;
56114;SDS011;41988;53.020;6.576;2023-12-14T08:33:13;27.13;;;10.13;;
56114;SDS011;41988;53.020;6.576;2023-12-14T08:35:57;28.17;;;10.85;;
56114;SDS011;41988;53.020;6.576;2023-12-14T08:38:42;28.30;;;11.00;;
56114;SDS011;41988;53.020;6.576;2023-12-14T08:41:26;23.63;;;10.65;;
56114;SDS011;41988;53.020;6.576;2023-12-14T08:44:10;21.88;;;10.25;;
56114;SDS011;41988;53.020;6.576;2023-12-14T08:46:54;27.33;;;11.80;;
56114;SDS011;41988;53.020;6.576;2023-12-14T08:49:39;27.15;;;11.15;;
56114;SDS011;41988;53.020;6.576;2023-12-14T08:52:23;28.48;;;11.07;;
56114;SDS011;41988;53.020;6.576;2023-12-14T08:55:08;23.17;;;10.88;;
56114;SDS011;41988;53.020;6.576;2023-12-14T08:57:52;30.73;;;11.60;;
56114;SDS011;41988;53.020;6.576;2023-12-14T09:00:36;26.73;;;10.85;;
56114;SDS011;41988;53.020;6.576;2023-12-14T09:03:20;23.80;;;11.45;;
56114;SDS011;41988;53.020;6.576;2023-12-14T09:06:05;29.50;;;12.32;;
56114;SDS011;41988;53.020;6.576;2023-12-14T09:08:49;27.00;;;10.95;;
56114;SDS011;41988;53.020;6.576;2023-12-14T09:11:33;22.88;;;10.98;;
56114;SDS011;41988;53.020;6.576;2023-12-14T09:14:19;28.83;;;11.90;;
56114;SDS011;41988;53.020;6.576;2023-12-14T09:17:04;27.60;;;12.10;;
56114;SDS011;41988;53.020;6.576;2023-12-14T09:19:48;25.63;;;10.95;;
56114;SDS011;41988;53.020;6.576;2023-12-14T09:22:32;23.27;;;10.32;;
56114;SDS011;41988;53.020;6.576;2023-12-14T09:25:16;27.27;;;11.95;;
56114;SDS011;41988;53.020;6.576;2023-12-14T09:28:00;27.75;;;11.93;;
56114;SDS011;41988;53.020;6.576;2023-12-14T09:30:44;23.75;;;10.77;;
56114;SDS011;41988;53.020;6.576;2023-12-14T09:33:28;25.60;;;11.48;;
56114;SDS011;41988;53.020;6.576;2023-12-14T09:36:14;24.98;;;10.70;;
56114;SDS011;41988;53.020;6.576;2023-12-14T09:38:58;25.42;;;11.15;;
56114;SDS011;41988;53.020;6.576;2023-12-14T09:41:42;23.48;;;10.60;;
56114;SDS011;41988;53.020;6.576;2023-12-14T09:44:26;23.88;;;10.95;;
56114;SDS011;41988;53.020;6.576;2023-12-14T09:47:11;26.65;;;11.43;;
56114;SDS011;41988;53.020;6.576;2023-12-14T09:49:56;26.27;;;11.88;;
56114;SDS011;41988;53.020;6.576;2023-12-14T09:52:40;31.77;;;13.43;;
56114;SDS011;41988;53.020;6.576;2023-12-14T09:55:28;25.52;;;11.48;;
56114;SDS011;41988;53.020;6.576;2023-12-14T09:58:14;28.17;;;12.10;;
56114;SDS011;41988;53.020;6.576;2023-12-14T10:00:59;27.13;;;12.38;;
56114;SDS011;41988;53.020;6.576;2023-12-14T10:03:47;29.38;;;11.60;;
56114;SDS011;41988;53.020;6.576;2023-12-14T10:06:31;20.95;;;11.90;;
56114;SDS011;41988;53.020;6.576;2023-12-14T10:09:22;31.45;;;12.98;;
56114;SDS011;41988;53.020;6.576;2023-12-14T10:12:07;23.25;;;11.73;;
56114;SDS011;41988;53.020;6.576;2023-12-14T10:15:02;31.55;;;11.77;;
56114;SDS011;41988;53.020;6.576;2023-12-14T10:17:53;27.02;;;12.45;;
56114;SDS011;41988;53.020;6.576;2023-12-14T10:20:37;30.77;;;11.98;;
56114;SDS011;41988;53.020;6.576;2023-12-14T10:23:22;32.42;;;11.90;;
56114;SDS011;41988;53.020;6.576;2023-12-14T10:26:07;27.50;;;12.27;;
56114;SDS011;41988;53.020;6.576;2023-12-14T10:28:53;23.58;;;11.20;;
56114;SDS011;41988;53.020;6.576;2023-12-14T10:31:37;25.63;;;11.52;;
56114;SDS011;41988;53.020;6.576;2023-12-14T10:34:21;23.00;;;10.93;;
56114;SDS011;41988;53.020;6.576;2023-12-14T10:37:05;28.65;;;11.95;;
56114;SDS011;41988;53.020;6.576;2023-12-14T10:39:50;27.55;;;11.70;;
56114;SDS011;41988;53.020;6.576;2023-12-14T10:42:37;22.13;;;11.35;;
56114;SDS011;41988;53.020;6.576;2023-12-14T10:45:30;28.83;;;11.20;;
56114;SDS011;41988;53.020;6.576;2023-12-14T10:48:17;29.30;;;11.85;;
56114;SDS011;41988;53.020;6.576;2023-12-14T10:51:04;27.08;;;12.27;;
56114;SDS011;41988;53.020;6.576;2023-12-14T10:53:49;29.15;;;12.25;;
56114;SDS011;41988;53.020;6.576;2023-12-14T10:56:35;21.30;;;11.75;;
56114;SDS011;41988;53.020;6.576;2023-12-14T10:59:20;24.65;;;11.63;;
56114;SDS011;41988;53.020;6.576;2023-12-14T11:02:08;25.55;;;11.73;;
56114;SDS011;41988;53.020;6.576;2023-12-14T11:04:57;24.27;;;11.77;;
56114;SDS011;41988;53.020;6.576;2023-12-14T11:10:52;22.88;;;11.80;;
56114;SDS011;41988;53.020;6.576;2023-12-14T11:13:40;22.85;;;10.77;;
56114;SDS011;41988;53.020;6.576;2023-12-14T11:16:26;23.33;;;10.88;;
56114;SDS011;41988;53.020;6.576;2023-12-14T11:22:13;20.70;;;10.13;;
56114;SDS011;41988;53.020;6.576;2023-12-14T11:25:07;19.63;;;10.52;;
56114;SDS011;41988;53.020;6.576;2023-12-14T11:27:51;22.65;;;11.35;;
56114;SDS011;41988;53.020;6.576;2023-12-14T11:30:35;20.38;;;10.15;;
56114;SDS011;41988;53.020;6.576;2023-12-14T11:33:20;24.45;;;11.00;;
56114;SDS011;41988;53.020;6.576;2023-12-14T11:36:05;23.45;;;10.50;;
56114;SDS011;41988;53.020;6.576;2023-12-14T11:38:50;19.33;;;10.13;;
56114;SDS011;41988;53.020;6.576;2023-12-14T11:41:34;23.15;;;10.57;;
56114;SDS011;41988;53.020;6.576;2023-12-14T11:44:24;25.10;;;11.25;;
56114;SDS011;41988;53.020;6.576;2023-12-14T11:47:09;21.05;;;10.32;;
56114;SDS011;41988;53.020;6.576;2023-12-14T11:49:53;21.23;;;10.65;;
56114;SDS011;41988;53.020;6.576;2023-12-14T11:52:37;22.90;;;10.90;;
56114;SDS011;41988;53.020;6.576;2023-12-14T11:55:22;22.70;;;10.13;;
56114;SDS011;41988;53.020;6.576;2023-12-14T11:58:06;18.90;;;10.20;;
56114;SDS011;41988;53.020;6.576;2023-12-14T12:00:51;19.92;;;10.00;;
56114;SDS011;41988;53.020;6.576;2023-12-14T12:03:35;26.27;;;10.25;;
56114;SDS011;41988;53.020;6.576;2023-12-14T12:06:23;23.63;;;10.40;;
56114;SDS011;41988;53.020;6.576;2023-12-14T12:09:08;18.10;;;10.38;;
56114;SDS011;41988;53.020;6.576;2023-12-14T12:11:54;19.88;;;10.07;;
56114;SDS011;41988;53.020;6.576;2023-12-14T12:14:38;27.40;;;10.30;;
56114;SDS011;41988;53.020;6.576;2023-12-14T12:17:23;19.40;;;10.82;;
56114;SDS011;41988;53.020;6.576;2023-12-14T12:20:07;22.45;;;11.00;;
56114;SDS011;41988;53.020;6.576;2023-12-14T12:22:52;21.13;;;10.30;;
56114;SDS011;41988;53.020;6.576;2023-12-14T12:25:37;18.50;;;9.30;;
56114;SDS011;41988;53.020;6.576;2023-12-14T12:28:22;19.40;;;10.20;;
56114;SDS011;41988;53.020;6.576;2023-12-14T12:31:06;17.50;;;9.70;;
56114;SDS011;41988;53.020;6.576;2023-12-14T12:33:50;19.67;;;9.60;;
56114;SDS011;41988;53.020;6.576;2023-12-14T12:36:34;20.10;;;9.82;;
56114;SDS011;41988;53.020;6.576;2023-12-14T12:39:20;18.63;;;9.07;;
56114;SDS011;41988;53.020;6.576;2023-12-14T12:42:04;24.05;;;10.35;;
56114;SDS011;41988;53.020;6.576;2023-12-14T12:44:49;18.35;;;9.18;;
56114;SDS011;41988;53.020;6.576;2023-12-14T12:47:33;22.10;;;10.73;;
56114;SDS011;41988;53.020;6.576;2023-12-14T12:50:17;18.58;;;9.32;;
56114;SDS011;41988;53.020;6.576;2023-12-14T12:53:02;20.83;;;9.77;;
56114;SDS011;41988;53.020;6.576;2023-12-14T12:55:46;23.70;;;11.18;;
56114;SDS011;41988;53.020;6.576;2023-12-14T12:58:30;18.98;;;10.77;;
56114;SDS011;41988;53.020;6.576;2023-12-14T13:01:15;20.85;;;10.68;;
56114;SDS011;41988;53.020;6.576;2023-12-14T13:03:59;20.45;;;11.25;;
56114;SDS011;41988;53.020;6.576;2023-12-14T13:06:44;21.25;;;10.10;;
56114;SDS011;41988;53.020;6.576;2023-12-14T13:09:29;19.88;;;10.70;;
56114;SDS011;41988;53.020;6.576;2023-12-14T13:12:14;16.25;;;9.95;;
56114;SDS011;41988;53.020;6.576;2023-12-14T13:14:58;19.83;;;9.85;;
56114;SDS011;41988;53.020;6.576;2023-12-14T13:17:43;15.07;;;9.25;;
56114;SDS011;41988;53.020;6.576;2023-12-14T13:20:28;21.88;;;9.82;;
56114;SDS011;41988;53.020;6.576;2023-12-14T13:23:12;16.70;;;9.70;;
56114;SDS011;41988;53.020;6.576;2023-12-14T13:25:55;19.85;;;10.35;;
56114;SDS011;41988;53.020;6.576;2023-12-14T13:28:39;16.73;;;10.38;;
56114;SDS011;41988;53.020;6.576;2023-12-14T13:31:23;19.33;;;10.25;;
56114;SDS011;41988;53.020;6.576;2023-12-14T13:34:08;19.27;;;10.15;;
56114;SDS011;41988;53.020;6.576;2023-12-14T13:36:52;17.30;;;9.85;;
56114;SDS011;41988;53.020;6.576;2023-12-14T13:39:37;15.68;;;8.95;;
56114;SDS011;41988;53.020;6.576;2023-12-14T13:42:21;19.33;;;10.00;;
56114;SDS011;41988;53.020;6.576;2023-12-14T13:45:06;14.05;;;8.82;;
56114;SDS011;41988;53.020;6.576;2023-12-14T13:47:51;15.85;;;10.13;;
56114;SDS011;41988;53.020;6.576;2023-12-14T13:50:35;19.17;;;10.45;;
56114;SDS011;41988;53.020;6.576;2023-12-14T13:53:19;17.42;;;10.45;;
56114;SDS011;41988;53.020;6.576;2023-12-14T13:56:04;18.50;;;9.85;;
56114;SDS011;41988;53.020;6.576;2023-12-14T13:58:48;16.70;;;10.13;;
56114;SDS011;41988;53.020;6.576;2023-12-14T14:01:33;18.48;;;10.27;;
56114;SDS011;41988;53.020;6.576;2023-12-14T14:04:17;20.42;;;10.02;;
56114;SDS011;41988;53.020;6.576;2023-12-14T14:07:01;17.20;;;11.10;;
56114;SDS011;41988;53.020;6.576;2023-12-14T14:09:46;23.63;;;11.23;;
56114;SDS011;41988;53.020;6.576;2023-12-14T14:12:30;19.88;;;10.90;;
56114;SDS011;41988;53.020;6.576;2023-12-14T14:15:14;16.40;;;10.82;;
56114;SDS011;41988;53.020;6.576;2023-12-14T14:17:58;18.38;;;11.05;;
56114;SDS011;41988;53.020;6.576;2023-12-14T14:20:44;17.65;;;10.75;;
56114;SDS011;41988;53.020;6.576;2023-12-14T14:23:29;16.25;;;11.52;;
56114;SDS011;41988;53.020;6.576;2023-12-14T14:26:14;20.42;;;11.57;;
56114;SDS011;41988;53.020;6.576;2023-12-14T14:28:59;19.50;;;10.80;;
56114;SDS011;41988;53.020;6.576;2023-12-14T14:31:46;16.85;;;10.13;;
56114;SDS011;41988;53.020;6.576;2023-12-14T14:34:30;19.42;;;11.07;;
56114;SDS011;41988;53.020;6.576;2023-12-14T14:37:14;19.80;;;11.10;;
56114;SDS011;41988;53.020;6.576;2023-12-14T14:39:58;19.67;;;10.65;;
56114;SDS011;41988;53.020;6.576;2023-12-14T14:42:43;21.48;;;10.82;;
56114;SDS011;41988;53.020;6.576;2023-12-14T14:45:27;17.67;;;10.73;;
56114;SDS011;41988;53.020;6.576;2023-12-14T14:48:11;21.30;;;10.80;;
56114;SDS011;41988;53.020;6.576;2023-12-14T14:50:55;18.73;;;10.95;;
56114;SDS011;41988;53.020;6.576;2023-12-14T14:53:40;20.60;;;10.57;;
56114;SDS011;41988;53.020;6.576;2023-12-14T14:56:27;20.08;;;10.77;;
56114;SDS011;41988;53.020;6.576;2023-12-14T14:59:11;22.45;;;11.20;;
56114;SDS011;41988;53.020;6.576;2023-12-14T15:01:59;19.60;;;10.65;;
56114;SDS011;41988;53.020;6.576;2023-12-14T15:04:45;20.70;;;10.55;;
56114;SDS011;41988;53.020;6.576;2023-12-14T15:07:30;25.65;;;11.02;;
56114;SDS011;41988;53.020;6.576;2023-12-14T15:10:15;21.10;;;12.32;;
56114;SDS011;41988;53.020;6.576;2023-12-14T15:12:59;19.70;;;10.65;;
56114;SDS011;41988;53.020;6.576;2023-12-14T15:15:43;19.00;;;10.93;;
56114;SDS011;41988;53.020;6.576;2023-12-14T15:18:28;21.05;;;10.75;;
56114;SDS011;41988;53.020;6.576;2023-12-14T15:21:12;21.55;;;10.98;;
56114;SDS011;41988;53.020;6.576;2023-12-14T15:23:56;22.00;;;12.38;;
56114;SDS011;41988;53.020;6.576;2023-12-14T15:26:41;19.85;;;11.43;;
56114;SDS011;41988;53.020;6.576;2023-12-14T15:29:25;23.42;;;12.18;;
56114;SDS011;41988;53.020;6.576;2023-12-14T15:32:10;20.08;;;11.65;;
56114;SDS011;41988;53.020;6.576;2023-12-14T15:34:55;20.75;;;11.52;;
56114;SDS011;41988;53.020;6.576;2023-12-14T15:37:39;19.80;;;11.30;;
56114;SDS011;41988;53.020;6.576;2023-12-14T15:40:23;21.48;;;11.60;;
56114;SDS011;41988;53.020;6.576;2023-12-14T15:43:07;24.70;;;12.25;;
56114;SDS011;41988;53.020;6.576;2023-12-14T15:45:52;20.30;;;11.18;;
56114;SDS011;41988;53.020;6.576;2023-12-14T15:48:36;28.60;;;12.45;;
56114;SDS011;41988;53.020;6.576;2023-12-14T15:51:20;22.73;;;11.70;;
56114;SDS011;41988;53.020;6.576;2023-12-14T15:54:04;26.92;;;12.50;;
56114;SDS011;41988;53.020;6.576;2023-12-14T15:56:49;23.67;;;12.90;;
56114;SDS011;41988;53.020;6.576;2023-12-14T15:59:33;27.80;;;13.07;;
56114;SDS011;41988;53.020;6.576;2023-12-14T16:02:17;24.33;;;11.68;;
56114;SDS011;41988;53.020;6.576;2023-12-14T16:05:01;23.98;;;12.07;;
56114;SDS011;41988;53.020;6.576;2023-12-14T16:07:46;21.63;;;12.48;;
56114;SDS011;41988;53.020;6.576;2023-12-14T16:10:30;22.05;;;11.35;;
56114;SDS011;41988;53.020;6.576;2023-12-14T16:13:14;23.88;;;12.18;;
56114;SDS011;41988;53.020;6.576;2023-12-14T16:15:58;22.08;;;11.10;;